Aérodrome :
LOGIN :

S'inscrire | Disclaimer

   EN    FR    IT 

 










Légende :    VFR   VFR Marginal   IFR   IFR Intensif   IFR Très Intensif
Visi : 
Plafond : 
>= 8 km
>= 3000ft
5 à 8 km
1000 à 3000 ft
1500m à 5 km
500 à 1000 ft
800 à 1500m
200 à 500 ft
< 800m
< 200 ft
Symboles :   Orages  Brouillard  Fortes neiges  Fortes précipitations  Vent > 20 kt
SIGMETs :   Divers  Orages  Givrage  Turbulence  Onde Orograph.  Cendres Volcan.







- Altitude de l'aérodrome : 82 ft
- Code IATA : QIE
- Voir les cartes d'approche


LFMI - Istres

DERNIER METAR :
  • 232130Z AUTO 32010KT CAVOK 12/03 Q1026 NOSIG

METARs EXPIRÉS :
  • 232100Z AUTO 34017KT CAVOK 13/03 Q1026 BECMG VRB03KT
  • 232030Z AUTO 30009KT 270V360 CAVOK 12/03 Q1025 NOSIG
  • 232000Z AUTO 31009KT CAVOK 11/03 Q1025 NOSIG
  • 231930Z AUTO 31015KT CAVOK 11/03 Q1025 NOSIG
  • 231900Z AUTO 32008KT 290V350 CAVOK 12/04 Q1025 NOSIG
  • 231830Z AUTO 29010KT 270V330 CAVOK 12/03 Q1024 NOSIG

TAF TAF LFMI
Valide du 23 à 21h jusqu'au 24 à 21h UTC


232000Z 2321/2421 30011KT CAVOK
BECMG 2321/2401 VRB03KT
BECMG 2412/2416 16010KT
Pas de NOTAMs connus pour ce terrain.



MET'MAP, la Météo Aéronautique d'un coup d'oeil ! - Copyright ORBIFLY Décembre 2007 - Disclaimer

ORBIFLY MET'MAP TEAM :

Programmation & Développement : Alexandra Zaïnal
Conception & Développement : Baudouin d'Aumeries
Co-Programmation & Développement : Marc-Olivier Méhu
Soutien technique & logistique : Manuel Goepfert

Contact : metmap@orbifly.com




SOURCES & CREDITS :

   NOAA